createdAt,value
2019-06-01T00:01:26.271Z,15.99
2019-06-01T00:03:59.245Z,16.17
2019-06-01T00:06:32.124Z,16.16
2019-06-01T00:09:04.607Z,16.01
2019-06-01T00:11:36.356Z,15.92
2019-06-01T00:14:09.532Z,16.03
2019-06-01T00:16:42.005Z,15.97
2019-06-01T00:19:15.328Z,15.78
2019-06-01T00:21:54.319Z,15.65
2019-06-01T00:24:27.676Z,15.58
2019-06-01T00:26:59.783Z,15.61
2019-06-01T00:29:31.651Z,15.56
2019-06-01T00:32:03.691Z,15.51
2019-06-01T00:34:35.136Z,15.43
2019-06-01T00:37:07.153Z,15.60
2019-06-01T00:39:38.556Z,15.60
2019-06-01T00:42:10.208Z,15.54
2019-06-01T00:44:42.097Z,15.54
2019-06-01T00:47:15.931Z,15.60
2019-06-01T00:49:51.102Z,15.64
2019-06-01T00:52:23.202Z,15.55
2019-06-01T00:54:58.311Z,15.64
2019-06-01T00:57:32.137Z,15.61
2019-06-01T01:00:04.247Z,15.67
2019-06-01T01:02:36.813Z,15.63
2019-06-01T01:05:17.515Z,15.65
2019-06-01T01:07:50.635Z,15.73
2019-06-01T01:10:22.457Z,15.74
2019-06-01T01:13:12.896Z,15.83
2019-06-01T01:15:45.240Z,15.87
2019-06-01T01:18:16.735Z,15.74
2019-06-01T01:20:48.176Z,15.71
2019-06-01T01:23:19.757Z,15.90
2019-06-01T01:25:52.547Z,15.65
2019-06-01T01:28:24.131Z,15.71
2019-06-01T01:31:08.940Z,15.78
2019-06-01T01:33:29.131Z,15.91
2019-06-01T01:36:00.987Z,15.72
2019-06-01T01:38:32.396Z,15.72
2019-06-01T01:41:03.787Z,15.65
2019-06-01T01:43:35.635Z,15.73
2019-06-01T01:46:07.242Z,15.57
2019-06-01T01:48:38.737Z,15.52
2019-06-01T01:51:10.541Z,15.60
2019-06-01T01:53:41.935Z,15.60
2019-06-01T01:56:14.325Z,15.44
2019-06-01T01:58:45.808Z,15.44
2019-06-01T02:01:22.733Z,15.54
2019-06-01T02:03:51.774Z,15.45
2019-06-01T02:06:24.269Z,15.47
2019-06-01T02:08:55.551Z,15.56
2019-06-01T02:11:27.001Z,15.36
2019-06-01T02:13:59.932Z,15.55
2019-06-01T02:16:32.601Z,15.43
2019-06-01T02:19:07.123Z,15.64
2019-06-01T02:21:38.652Z,15.65
2019-06-01T02:24:10.028Z,15.56
2019-06-01T02:26:41.441Z,15.58
2019-06-01T02:29:12.998Z,15.49
2019-06-01T02:31:44.516Z,15.53
2019-06-01T02:34:15.912Z,15.55
2019-06-01T02:36:47.382Z,15.54
2019-06-01T02:39:19.009Z,15.42
2019-06-01T02:41:50.721Z,15.46
2019-06-01T02:44:23.146Z,15.51
2019-06-01T02:46:55.401Z,15.57
2019-06-01T02:49:27.329Z,15.50
2019-06-01T02:51:59.295Z,15.50
2019-06-01T02:54:31.377Z,15.48
2019-06-01T02:57:04.109Z,15.48
2019-06-01T02:59:35.689Z,15.46
2019-06-01T03:02:12.248Z,15.48
2019-06-01T03:04:41.084Z,15.53
2019-06-01T03:07:15.208Z,15.35
2019-06-01T03:09:49.692Z,15.48
2019-06-01T03:12:22.545Z,15.53
2019-06-01T03:14:58.234Z,15.52
2019-06-01T03:17:32.903Z,15.57
2019-06-01T03:20:06.289Z,15.55
2019-06-01T03:22:40.818Z,15.54
2019-06-01T03:25:13.448Z,15.51
2019-06-01T03:27:47.420Z,15.60
2019-06-01T03:30:27.759Z,15.69
2019-06-01T03:33:01.138Z,15.74
2019-06-01T03:35:32.809Z,15.72
2019-06-01T03:38:04.950Z,15.83
2019-06-01T03:40:36.439Z,15.83
2019-06-01T03:43:09.356Z,15.88
2019-06-01T03:45:40.873Z,15.79
2019-06-01T03:48:12.977Z,15.86
2019-06-01T03:50:44.522Z,15.83
2019-06-01T03:53:16.853Z,15.86
2019-06-01T03:55:48.257Z,15.82
2019-06-01T03:58:19.653Z,15.90
2019-06-01T04:00:51.126Z,15.75
2019-06-01T04:03:22.867Z,15.87
2019-06-01T04:05:54.287Z,15.79
2019-06-01T04:08:26.278Z,15.84
2019-06-01T04:10:57.690Z,15.94
2019-06-01T04:13:29.076Z,15.99
2019-06-01T04:16:01.657Z,16.03
2019-06-01T04:18:33.253Z,15.90
2019-06-01T04:21:05.914Z,15.88
2019-06-01T04:23:38.025Z,16.05
2019-06-01T04:26:10.392Z,16.18
2019-06-01T04:28:41.972Z,16.14
2019-06-01T04:31:13.461Z,16.16
2019-06-01T04:33:44.923Z,16.03
2019-06-01T04:36:16.435Z,16.04
2019-06-01T04:38:47.813Z,15.95
2019-06-01T04:41:19.405Z,16.04
2019-06-01T04:43:50.896Z,16.04
2019-06-01T04:46:22.507Z,16.04
2019-06-01T04:48:54.028Z,15.99
2019-06-01T04:51:25.522Z,16.01
2019-06-01T04:53:56.902Z,16.01
2019-06-01T04:56:28.308Z,16.03
2019-06-01T04:58:59.878Z,16.02
2019-06-01T05:01:31.346Z,16.11
2019-06-01T05:04:02.834Z,16.03
2019-06-01T05:06:34.215Z,16.12
2019-06-01T05:09:09.288Z,16.11
2019-06-01T05:11:43.303Z,16.19
2019-06-01T05:14:16.563Z,16.21
2019-06-01T05:16:48.219Z,16.11
2019-06-01T05:19:19.727Z,16.21
2019-06-01T05:21:51.072Z,16.30
2019-06-01T05:24:22.476Z,16.30
2019-06-01T05:26:54.452Z,16.24
2019-06-01T05:29:26.111Z,16.31
2019-06-01T05:31:58.037Z,16.31
2019-06-01T05:34:29.404Z,16.26
2019-06-01T05:37:00.744Z,16.31
2019-06-01T05:39:32.180Z,16.24
2019-06-01T05:42:04.082Z,16.36
2019-06-01T05:44:35.852Z,16.50
2019-06-01T05:47:07.317Z,16.40
2019-06-01T05:49:38.737Z,16.36
2019-06-01T05:52:10.476Z,16.45
2019-06-01T05:54:42.250Z,16.52
2019-06-01T05:57:14.769Z,16.41
2019-06-01T06:00:52.487Z,16.70
2019-06-01T06:03:39.635Z,16.80
2019-06-01T06:05:57.516Z,16.97
2019-06-01T06:08:29.103Z,17.43
2019-06-01T06:11:01.025Z,17.46
2019-06-01T06:13:32.883Z,17.81
2019-06-01T06:16:04.412Z,18.31
2019-06-01T06:18:35.933Z,18.58
2019-06-01T06:21:07.481Z,18.41
2019-06-01T06:23:38.999Z,18.83
2019-06-01T06:26:11.893Z,18.87
2019-06-01T06:28:43.414Z,18.95
2019-06-01T06:31:15.328Z,18.62
2019-06-01T06:33:56.639Z,19.36
2019-06-01T06:36:26.113Z,19.42
2019-06-01T06:38:57.657Z,18.49
2019-06-01T06:41:29.095Z,18.60
2019-06-01T06:44:00.998Z,18.65
2019-06-01T06:46:34.378Z,18.50
2019-06-01T06:49:05.793Z,18.42
2019-06-01T06:51:37.137Z,18.67
2019-06-01T06:54:08.643Z,18.95
2019-06-01T06:56:40.087Z,18.81
2019-06-01T06:59:11.850Z,18.85
2019-06-01T07:01:43.680Z,18.78
2019-06-01T07:04:15.054Z,18.66
2019-06-01T07:06:48.878Z,18.84
2019-06-01T07:09:20.287Z,18.94
2019-06-01T07:11:52.007Z,18.86
2019-06-01T07:14:23.566Z,18.80
2019-06-01T07:16:55.890Z,18.59
2019-06-01T07:19:28.425Z,18.59
2019-06-01T07:21:59.922Z,18.45
2019-06-01T07:24:32.149Z,18.49
2019-06-01T07:27:04.634Z,18.40
2019-06-01T07:29:36.117Z,18.54
2019-06-01T07:32:07.664Z,18.68
2019-06-01T07:34:53.069Z,18.50
2019-06-01T07:37:24.825Z,18.72
2019-06-01T07:39:56.865Z,18.92
2019-06-01T07:42:29.526Z,19.16
2019-06-01T07:45:01.194Z,19.28
2019-06-01T07:47:33.988Z,19.75
2019-06-01T07:50:06.514Z,19.51
2019-06-01T07:52:40.135Z,19.77
2019-06-01T07:55:12.157Z,19.84
2019-06-01T07:57:44.333Z,19.30
2019-06-01T08:00:17.815Z,19.51
2019-06-01T08:02:49.249Z,19.80
2019-06-01T08:05:23.291Z,20.12
2019-06-01T08:07:54.353Z,20.07
2019-06-01T08:10:29.624Z,20.07
2019-06-01T08:13:01.944Z,20.31
2019-06-01T08:15:33.277Z,20.52
2019-06-01T08:18:05.187Z,21.00
2019-06-01T08:20:36.542Z,21.08
2019-06-01T08:23:07.914Z,21.31
2019-06-01T08:25:39.440Z,21.12
2019-06-01T08:28:10.920Z,21.40
2019-06-01T08:30:42.567Z,21.34
2019-06-01T08:33:14.101Z,20.83
2019-06-01T08:35:54.910Z,21.21
2019-06-01T08:38:27.480Z,21.10
2019-06-01T08:41:00.043Z,21.28
2019-06-01T08:43:31.850Z,21.03
2019-06-01T08:46:03.456Z,20.97
2019-06-01T08:48:34.947Z,20.67
2019-06-01T08:51:06.372Z,20.76
2019-06-01T08:53:40.772Z,20.81
2019-06-01T08:56:12.949Z,21.12
2019-06-01T08:58:45.051Z,21.21
2019-06-01T09:01:19.605Z,21.04
2019-06-01T09:04:09.572Z,21.51
2019-06-01T09:06:42.191Z,21.68
2019-06-01T09:09:14.729Z,21.28
2019-06-01T09:11:46.169Z,21.57
2019-06-01T09:14:17.555Z,21.66
2019-06-01T09:16:49.131Z,21.85
2019-06-01T09:19:20.556Z,21.79
2019-06-01T09:21:52.186Z,21.41
2019-06-01T09:24:23.886Z,21.50
2019-06-01T09:26:55.805Z,21.38
2019-06-01T09:29:27.839Z,21.75
2019-06-01T09:31:59.649Z,21.66
2019-06-01T09:34:32.442Z,21.54
2019-06-01T09:37:04.472Z,21.34
2019-06-01T09:39:37.310Z,21.02
2019-06-01T09:42:09.347Z,21.28
2019-06-01T09:44:40.881Z,21.31
2019-06-01T09:47:12.504Z,21.13
2019-06-01T09:49:44.355Z,21.19
2019-06-01T09:52:16.685Z,21.47
2019-06-01T09:54:48.523Z,21.63
2019-06-01T09:57:19.864Z,21.84
2019-06-01T09:59:51.285Z,22.15
2019-06-01T10:02:22.928Z,21.57
2019-06-01T10:04:54.766Z,21.87
2019-06-01T10:07:29.197Z,22.08
2019-06-01T10:10:00.828Z,22.00
2019-06-01T10:12:32.541Z,21.67
2019-06-01T10:15:04.344Z,22.17
2019-06-01T10:17:38.886Z,22.06
2019-06-01T10:20:14.433Z,21.81
2019-06-01T10:22:46.269Z,21.82
2019-06-01T10:25:21.028Z,21.60
2019-06-01T10:27:52.642Z,21.37
2019-06-01T10:30:24.292Z,21.78
2019-06-01T10:32:56.287Z,21.63
2019-06-01T10:35:28.123Z,21.76
2019-06-01T10:38:01.913Z,21.91
2019-06-01T10:40:33.523Z,21.90
2019-06-01T10:43:05.603Z,22.02
2019-06-01T10:45:37.804Z,21.82
2019-06-01T10:48:09.535Z,21.93
2019-06-01T10:50:42.997Z,22.46
2019-06-01T10:53:14.675Z,22.34
2019-06-01T10:55:47.508Z,22.19
2019-06-01T10:58:21.415Z,22.13
2019-06-01T11:00:53.019Z,22.29
2019-06-01T11:03:25.751Z,22.67
2019-06-01T11:05:57.436Z,22.73
2019-06-01T11:08:30.237Z,22.75
2019-06-01T11:11:03.443Z,22.51
2019-06-01T11:13:37.087Z,22.71
2019-06-01T11:16:12.864Z,22.40
2019-06-01T11:18:45.105Z,22.42
2019-06-01T11:21:16.595Z,22.16
2019-06-01T11:23:49.742Z,22.24
2019-06-01T11:26:23.696Z,22.19
2019-06-01T11:28:55.573Z,22.38
2019-06-01T11:31:27.488Z,22.47
2019-06-01T11:33:59.454Z,22.59
2019-06-01T11:36:34.237Z,22.42
2019-06-01T11:39:08.181Z,22.30
2019-06-01T11:41:40.964Z,21.84
2019-06-01T11:44:12.415Z,22.13
2019-06-01T11:46:45.324Z,22.22
2019-06-01T11:49:21.164Z,22.22
2019-06-01T11:51:53.340Z,22.01
2019-06-01T11:54:26.012Z,21.84
2019-06-01T11:56:58.724Z,21.97
2019-06-01T11:59:30.812Z,21.86
2019-06-01T12:02:02.751Z,22.19
2019-06-01T12:04:34.077Z,22.31
2019-06-01T12:07:17.150Z,22.43
2019-06-01T12:09:39.950Z,22.47
2019-06-01T12:12:10.678Z,22.14
2019-06-01T12:14:42.664Z,21.82
2019-06-01T12:17:15.377Z,21.74
2019-06-01T12:19:47.508Z,21.86
2019-06-01T12:22:22.267Z,22.14
2019-06-01T12:24:53.756Z,21.97
2019-06-01T12:27:25.196Z,21.88
2019-06-01T12:29:56.853Z,21.79
2019-06-01T12:32:32.051Z,21.67
2019-06-01T12:35:03.812Z,21.68
2019-06-01T12:37:54.905Z,21.77
2019-06-01T12:40:09.191Z,21.67
2019-06-01T12:42:41.534Z,21.51
2019-06-01T12:45:22.710Z,21.42
2019-06-01T12:47:55.170Z,21.44
2019-06-01T12:50:25.346Z,21.63
2019-06-01T12:52:56.825Z,21.36
2019-06-01T12:55:28.302Z,21.55
2019-06-01T12:58:00.565Z,21.81
2019-06-01T13:00:32.004Z,22.13
2019-06-01T13:03:07.749Z,21.95
2019-06-01T13:05:36.717Z,21.70
2019-06-01T13:08:08.035Z,21.92
2019-06-01T13:10:39.479Z,21.79
2019-06-01T13:13:11.469Z,21.60
2019-06-01T13:15:43.719Z,21.67
2019-06-01T13:18:15.213Z,21.75
2019-06-01T13:20:47.643Z,21.40
2019-06-01T13:23:19.599Z,21.91
2019-06-01T13:25:51.896Z,21.72
2019-06-01T13:28:37.316Z,21.75
2019-06-01T13:30:56.418Z,21.26
2019-06-01T13:33:28.832Z,21.14
2019-06-01T13:36:00.351Z,21.36
2019-06-01T13:38:31.923Z,21.46
2019-06-01T13:41:03.408Z,21.50
2019-06-01T13:43:35.028Z,21.50
2019-06-01T13:46:06.882Z,21.44
2019-06-01T13:48:38.427Z,21.21
2019-06-01T13:51:09.877Z,21.32
2019-06-01T13:53:41.280Z,21.36
2019-06-01T13:56:12.774Z,21.16
2019-06-01T13:58:44.587Z,21.05
2019-06-01T14:01:16.151Z,21.20
2019-06-01T14:03:47.535Z,21.22
2019-06-01T14:06:19.015Z,20.97
2019-06-01T14:08:51.109Z,20.90
2019-06-01T14:11:22.630Z,20.58
2019-06-01T14:13:54.278Z,20.80
2019-06-01T14:16:26.367Z,20.74
2019-06-01T14:18:57.764Z,20.71
2019-06-01T14:21:29.235Z,20.94
2019-06-01T14:24:03.135Z,20.77
2019-06-01T14:26:34.583Z,20.88
2019-06-01T14:29:07.744Z,20.89
2019-06-01T14:31:39.131Z,21.05
2019-06-01T14:34:10.898Z,21.00
2019-06-01T14:36:43.554Z,20.87
2019-06-01T14:39:14.907Z,20.77
2019-06-01T14:41:46.720Z,20.70
2019-06-01T14:44:19.353Z,20.71
2019-06-01T14:47:01.336Z,20.74
2019-06-01T14:49:24.070Z,20.72
2019-06-01T14:51:57.871Z,20.69
2019-06-01T14:54:30.764Z,20.61
2019-06-01T14:57:05.208Z,20.66
2019-06-01T14:59:38.389Z,20.49
2019-06-01T15:02:13.553Z,20.45
2019-06-01T15:04:45.026Z,20.64
2019-06-01T15:07:16.934Z,20.67
2019-06-01T15:09:48.698Z,20.76
2019-06-01T15:12:20.050Z,20.81
2019-06-01T15:14:51.470Z,20.84
2019-06-01T15:17:23.253Z,20.89
2019-06-01T15:19:56.075Z,20.64
2019-06-01T15:22:27.688Z,20.83
2019-06-01T15:24:59.252Z,20.83
2019-06-01T15:27:30.671Z,20.69
2019-06-01T15:30:03.279Z,20.74
2019-06-01T15:32:34.974Z,20.78
2019-06-01T15:35:08.502Z,21.03
2019-06-01T15:37:39.839Z,20.71
2019-06-01T15:40:13.377Z,20.17
2019-06-01T15:42:44.872Z,20.33
2019-06-01T15:45:16.833Z,20.29
2019-06-01T15:47:48.889Z,20.60
2019-06-01T15:50:20.322Z,20.52
2019-06-01T15:52:52.984Z,20.51
2019-06-01T15:55:24.546Z,20.70
2019-06-01T15:57:56.555Z,20.61
2019-06-01T16:00:28.129Z,20.47
2019-06-01T16:03:01.040Z,20.20
2019-06-01T16:05:32.817Z,20.25
2019-06-01T16:08:05.569Z,20.42
2019-06-01T16:10:37.329Z,20.32
2019-06-01T16:13:08.778Z,20.22
2019-06-01T16:15:40.296Z,20.30
2019-06-01T16:18:12.175Z,20.20
2019-06-01T16:20:43.651Z,20.07
2019-06-01T16:23:16.743Z,20.36
2019-06-01T16:26:01.216Z,20.34
2019-06-01T16:28:22.494Z,20.31
2019-06-01T16:30:54.353Z,20.50
2019-06-01T16:33:25.956Z,20.59
2019-06-01T16:35:58.889Z,20.50
2019-06-01T16:38:31.941Z,20.19
2019-06-01T16:41:05.553Z,20.13
2019-06-01T16:43:38.654Z,20.27
2019-06-01T16:46:10.637Z,20.29
2019-06-01T16:48:42.081Z,20.19
2019-06-01T16:51:13.603Z,19.90
2019-06-01T16:53:45.113Z,19.72
2019-06-01T16:56:16.450Z,19.61
2019-06-01T16:58:48.076Z,19.54
2019-06-01T17:01:19.444Z,19.63
2019-06-01T17:03:52.018Z,19.72
2019-06-01T17:06:24.296Z,19.64
2019-06-01T17:08:56.776Z,19.55
2019-06-01T17:11:29.543Z,19.36
2019-06-01T17:14:01.267Z,19.52
2019-06-01T17:16:33.012Z,19.46
2019-06-01T17:19:05.209Z,19.43
2019-06-01T17:21:36.743Z,19.45
2019-06-01T17:24:08.322Z,19.59
2019-06-01T17:26:39.972Z,19.55
2019-06-01T17:29:11.371Z,19.41
2019-06-01T17:31:54.093Z,19.38
2019-06-01T17:34:15.882Z,19.25
2019-06-01T17:36:47.731Z,19.32
2019-06-01T17:39:19.795Z,19.35
2019-06-01T17:41:51.262Z,19.05
2019-06-01T17:44:22.893Z,19.14
2019-06-01T17:46:54.392Z,19.09
2019-06-01T17:49:26.952Z,19.20
2019-06-01T17:51:58.318Z,19.19
2019-06-01T17:54:29.872Z,19.51
2019-06-01T17:57:03.095Z,19.84
2019-06-01T17:59:34.674Z,19.61
2019-06-01T18:02:06.229Z,20.03
2019-06-01T18:04:37.699Z,19.98
2019-06-01T18:07:09.991Z,19.66
2019-06-01T18:09:41.703Z,19.26
2019-06-01T18:12:14.077Z,19.27
2019-06-01T18:14:45.923Z,19.39
2019-06-01T18:17:17.693Z,19.25
2019-06-01T18:19:49.630Z,18.90
2019-06-01T18:22:23.374Z,18.89
2019-06-01T18:24:54.880Z,19.06
2019-06-01T18:27:26.364Z,19.01
2019-06-01T18:29:57.886Z,19.13
2019-06-01T18:32:29.270Z,19.39
2019-06-01T18:35:00.786Z,19.43
2019-06-01T18:37:34.916Z,19.38
2019-06-01T18:40:07.710Z,19.19
2019-06-01T18:42:43.706Z,19.16
2019-06-01T18:45:15.721Z,19.10
2019-06-01T18:47:48.022Z,19.12
2019-06-01T18:50:19.951Z,19.05
2019-06-01T18:52:51.544Z,19.07
2019-06-01T18:55:27.211Z,18.91
2019-06-01T18:57:59.736Z,18.85
2019-06-01T19:00:31.275Z,18.69
2019-06-01T19:03:02.753Z,18.72
2019-06-01T19:05:34.190Z,18.71
2019-06-01T19:08:07.024Z,18.72
2019-06-01T19:10:38.695Z,18.58
2019-06-01T19:13:10.173Z,18.55
2019-06-01T19:15:41.981Z,18.55
2019-06-01T19:18:14.606Z,18.54
2019-06-01T19:20:50.217Z,18.46
2019-06-01T19:23:22.968Z,18.49
2019-06-01T19:25:55.177Z,18.47
2019-06-01T19:28:26.658Z,18.26
2019-06-01T19:30:58.095Z,18.08
2019-06-01T19:33:29.544Z,18.15
2019-06-01T19:36:01.513Z,18.05
2019-06-01T19:38:34.351Z,18.05
2019-06-01T19:41:07.404Z,17.98
2019-06-01T19:43:39.003Z,17.99
2019-06-01T19:46:10.318Z,17.87
2019-06-01T19:48:41.710Z,17.91
2019-06-01T19:51:13.092Z,17.54
2019-06-01T19:53:44.732Z,17.50
2019-06-01T19:56:17.055Z,17.43
2019-06-01T19:58:49.642Z,17.48
2019-06-01T20:01:23.814Z,17.57
2019-06-01T20:03:55.258Z,17.49
2019-06-01T20:06:26.658Z,17.22
2019-06-01T20:09:00.333Z,17.13
2019-06-01T20:11:31.995Z,17.29
2019-06-01T20:14:03.420Z,17.39
2019-06-01T20:16:34.883Z,17.40
2019-06-01T20:19:06.318Z,17.32
2019-06-01T20:21:37.809Z,17.24
2019-06-01T20:24:09.302Z,17.33
2019-06-01T20:26:48.765Z,17.14
2019-06-01T20:29:14.040Z,17.01
2019-06-01T20:31:46.539Z,17.00
2019-06-01T20:34:18.083Z,17.02
2019-06-01T20:36:49.625Z,16.96
2019-06-01T20:39:22.331Z,16.76
2019-06-01T20:41:54.058Z,16.79
2019-06-01T20:44:25.616Z,16.74
2019-06-01T20:46:57.254Z,16.65
2019-06-01T20:49:28.854Z,16.59
2019-06-01T20:52:01.893Z,16.60
2019-06-01T20:54:33.362Z,16.52
2019-06-01T20:57:05.840Z,16.52
2019-06-01T20:59:37.209Z,16.57
2019-06-01T21:02:08.710Z,16.66
2019-06-01T21:04:40.202Z,16.55
2019-06-01T21:07:11.955Z,16.49
2019-06-01T21:09:43.733Z,16.47
2019-06-01T21:12:18.340Z,16.30
2019-06-01T21:14:49.959Z,16.42
2019-06-01T21:17:22.675Z,16.30
2019-06-01T21:19:54.407Z,16.06
2019-06-01T21:22:26.437Z,15.90
2019-06-01T21:24:57.874Z,15.87
2019-06-01T21:27:29.393Z,15.90
2019-06-01T21:30:01.787Z,15.88
2019-06-01T21:32:33.331Z,15.79
2019-06-01T21:35:07.857Z,15.82
2019-06-01T21:37:42.087Z,15.70
2019-06-01T21:40:13.754Z,15.78
2019-06-01T21:43:00.363Z,15.79
2019-06-01T21:45:19.685Z,15.88
2019-06-01T21:47:51.265Z,15.94
2019-06-01T21:50:25.972Z,16.03
2019-06-01T21:52:58.589Z,15.95
2019-06-01T21:55:30.207Z,15.75
2019-06-01T21:58:01.906Z,15.80
2019-06-01T22:00:37.272Z,15.86
2019-06-01T22:03:09.550Z,15.83
2019-06-01T22:05:40.994Z,15.71
2019-06-01T22:08:12.476Z,15.67
2019-06-01T22:10:45.426Z,15.61
2019-06-01T22:13:21.971Z,15.50
2019-06-01T22:15:51.641Z,15.54
2019-06-01T22:18:23.787Z,15.60
2019-06-01T22:20:55.260Z,15.64
2019-06-01T22:23:28.041Z,15.53
2019-06-01T22:25:59.686Z,15.64
2019-06-01T22:28:31.973Z,15.64
2019-06-01T22:31:03.563Z,15.74
2019-06-01T22:33:35.100Z,15.81
2019-06-01T22:36:06.582Z,15.71
2019-06-01T22:38:38.465Z,15.82
2019-06-01T22:41:10.620Z,15.79
2019-06-01T22:43:46.422Z,15.78
2019-06-01T22:47:54.557Z,15.78
2019-06-01T22:50:27.039Z,15.64
2019-06-01T22:52:58.432Z,15.61
2019-06-01T22:55:29.807Z,15.62
2019-06-01T22:58:01.696Z,15.46
2019-06-01T23:00:33.184Z,15.44
2019-06-01T23:03:05.854Z,15.55
2019-06-01T23:05:37.320Z,15.64
2019-06-01T23:08:08.654Z,15.57
2019-06-01T23:10:41.259Z,15.29
2019-06-01T23:13:13.143Z,15.16
2019-06-01T23:15:45.043Z,14.97
2019-06-01T23:18:16.422Z,14.91
2019-06-01T23:20:48.637Z,15.13
2019-06-01T23:23:20.032Z,15.06
2019-06-01T23:25:51.374Z,15.16
2019-06-01T23:28:24.040Z,15.34
2019-06-01T23:30:56.821Z,15.28
2019-06-01T23:33:28.858Z,15.42
2019-06-01T23:36:00.463Z,15.48
2019-06-01T23:38:32.790Z,15.65
2019-06-01T23:41:04.481Z,15.67
2019-06-01T23:43:35.922Z,15.50
2019-06-01T23:46:07.298Z,15.39
2019-06-01T23:48:39.220Z,15.46
2019-06-01T23:51:12.593Z,15.46
2019-06-01T23:53:44.064Z,15.56
2019-06-01T23:56:15.485Z,15.56
2019-06-01T23:58:46.867Z,15.50
